Nearby METAR Reports

KPSP - Palm Springs, California, USA
Distance from station: WNW 7mi, 11km
Updated: Thu, 23-Mar-2017 4:53am PDT
Clear
Clear
 Wind from SSE
Wind: SSE 12 mph , 19 km/h
Temperature: 61°F , 16°C
Dew Point: 34°F , 1°C
Humidity: 36%
Barometer: 29.91 inHg , 1012.9 hPa
Clouds: Clear
Visibility: 10 miles , 16 km
2017/03/23 11:53 KPSP 231153Z 16010KT 10SM CLR 16/01 A2991 RMK AO2 SLP128 T01560011 10183 20150 53013
KTRM - Thermal/Palm Spg, California, USA
Distance from station: SE 16mi, 26km
Updated: Thu, 23-Mar-2017 4:52am PDT
Clear
Clear
 Wind from NW
Wind: NW 8 mph , 13 km/h
Temperature: 61°F , 16°C
Dew Point: 36°F , 2°C
Humidity: 39%
Barometer: 29.90 inHg , 1012.5 hPa
Clouds: Clear
Visibility: 10 miles , 16 km
2017/03/23 11:52 KTRM 231152Z AUTO 31007KT 10SM CLR 16/02 A2990 RMK AO2 SLP125 T01610022 10189 20156 53010
 
KNXP - Twentynine Palms, California, USA
Distance from station: NNE 37mi, 60km
Updated: Thu, 23-Mar-2017 4:56am PDT
Clear
Clear
 Wind from WNW
Wind: WNW 16 mph , 26 km/h
Temperature: 50°F , 10°C
Wind Chill: 44°F , 7°C
Dew Point: 34°F , 1°C
Humidity: 54%
Barometer: 30.00 inHg , 1015.9 hPa
Clouds: Clear
Visibility: 10 miles , 16 km
2017/03/23 11:56 KNXP 231156Z AUTO 30014KT 10SM CLR 10/01 A3000 RMK AO2 PK WND 28029/1104 SLP135 T01000006 10128 20100 51012
KL35 - Big Bear City, California, USA
Distance from station: NW 43mi, 69km
Updated: Thu, 23-Mar-2017 4:55am PDT
Overcast
Overcast
 Wind from WSW
Wind: WSW 8 mph , 13 km/h, Gust: 17 mph , 28 km/h
Temperature: 32°F , 0°C
Wind Chill: 25°F , -4°C
Dew Point: 25°F , -4°C
Humidity: 75%
Barometer: 29.94 inHg , 1013.9 hPa
Clouds: Overcast
Visibility: 10 miles , 16 km
Cloud details: Overcast 1800 ft
2017/03/23 11:55 KL35 231155Z AUTO 25007G15KT 10SM OVC018 00/M04 A2994 RMK AO2
 
KF70 - Murrieta/Temecula, California, USA
Distance from station: WSW 45mi, 73km
Updated: Thu, 23-Mar-2017 4:55am PDT
Overcast
Overcast
 Wind from S
Wind: S 7 mph , 11 km/h
Temperature: 50°F , 10°C
Wind Chill: 47°F , 8°C
Dew Point: 46°F , 8°C
Humidity: 88%
Barometer: 30.01 inHg , 1016.3 hPa
Clouds: Overcast
Visibility: 10 miles , 16 km
Cloud details: Overcast 1200 ft
2017/03/23 11:55 KF70 231155Z AUTO 19006KT 10SM OVC012 10/08 A3001 RMK AO1
KRIV - Riverside/March, California, USA
Distance from station: W 51mi, 82km
Updated: Thu, 23-Mar-2017 4:58am PDT
Partly Cloudy
Partly Cloudy
 Wind from SSE
Wind: SSE 5 mph , 7 km/h
Temperature: 45°F , 7°C
Wind Chill: 42°F , 6°C
Dew Point: 45°F , 7°C
Humidity: 100%
Barometer: 29.99 inHg , 1015.6 hPa
Clouds: Partly Cloudy
Visibility: 10 miles , 16 km
Cloud details: Partly Cloudy 5500 ft
2017/03/23 11:58 KRIV 231158Z AUTO 15004KT 10SM SCT055 07/07 A2999 RMK AO2 SLP152 T00740073 10094 20059 56002
 
KSBD - San Bernardino, California, USA
Distance from station: WNW 54mi, 86km
Updated: Thu, 23-Mar-2017 4:58am PDT
Rain, Overcast
Rain, Overcast
 Wind from calm
Wind: Calm
Temperature: 54°F , 12°C
Dew Point: 46°F , 8°C
Humidity: 77%
Barometer: 30.00 inHg , 1015.9 hPa
Summary: Rain
Clouds: Overcast
Visibility: 10 miles , 16 km
Cloud details: Partly Cloudy 1900 ft
Mostly Cloudy 4400 ft
Overcast 6000 ft
2017/03/23 11:58 KSBD 231158Z AUTO 00000KT 10SM RA SCT019 BKN044 OVC060 12/08 A3000 RMK AO2 T01180081
KRNM - Ramona, California, USA
Distance from station: SSW 60mi, 96km
Updated: Thu, 23-Mar-2017 4:53am PDT
Overcast
Overcast
 Wind from WSW
Wind: WSW 6 mph , 9 km/h
Barometer: 30.03 inHg , 1016.9 hPa
Clouds: Overcast
Visibility: 10 miles , 16 km
Cloud details: Overcast 3400 ft
2017/03/23 11:53 KRNM 231153Z AUTO 24005KT 10SM OVC034 A3003 RMK AO2 SLPNO 60000 70001 54000 $
 
KRAL - Riverside, California, USA
Distance from station: W 62mi, 100km
Updated: Thu, 23-Mar-2017 4:53am PDT
Mostly Cloudy
Mostly Cloudy
 Wind from calm
Wind: Calm
Temperature: 52°F , 11°C
Dew Point: 46°F , 8°C
Humidity: 82%
Barometer: 30.00 inHg , 1015.9 hPa
Clouds: Mostly Cloudy
Visibility: 10 miles , 16 km
Cloud details: Mostly Cloudy 3200 ft
2017/03/23 11:53 KRAL 231153Z AUTO 00000KT 10SM BKN032 11/08 A3000 RMK AO2 SLP147 70001 T01060083 10122 20094 53002
KOKB - Oceanside, California, USA
Distance from station: SW 68mi, 109km
Updated: Thu, 23-Mar-2017 4:52am PDT
Overcast
Overcast
 Wind from W
Wind: W 10 mph , 17 km/h
Temperature: 57°F , 14°C
Dew Point: 52°F , 11°C
Humidity: 82%
Barometer: 30.02 inHg , 1016.6 hPa
Clouds: Overcast
Visibility: 9 miles , 14 km
Cloud details: Partly Cloudy 2400 ft
Mostly Cloudy 3800 ft
Overcast 5500 ft
2017/03/23 11:52 KOKB 231152Z AUTO 26009KT 9SM SCT024 BKN038 OVC055 14/11 A3002 RMK AO2 RAB08E26 SLP164 P0000 60000 70001 T01440111 10156 20139 55003
 
KONT - Ontario, California, USA
Distance from station: WNW 71mi, 114km
Updated: Thu, 23-Mar-2017 5:02am PDT
Mostly Cloudy
Mostly Cloudy
 Wind from varies
Wind: varies 3 mph , 6 km/h
Temperature: 52°F , 11°C
Dew Point: 46°F , 8°C
Humidity: 82%
Barometer: 30.00 inHg , 1015.9 hPa
Clouds: Mostly Cloudy
Visibility: 10 miles , 16 km
Cloud details: Partly Cloudy 2200 ft
Mostly Cloudy 3400 ft
2017/03/23 12:02 KONT 231202Z VRB03KT 10SM SCT022 BKN034 11/08 A3000 RMK AO2 T01060083
KNJK - El Centro Naf, California, USA
Distance from station: SSE 78mi, 126km
Updated: Thu, 23-Mar-2017 4:56am PDT
Clear
Clear
 Wind from W
Wind: W 22 mph , 35 km/h
Temperature: 59°F , 15°C
Dew Point: 36°F , 2°C
Humidity: 42%
Barometer: 29.95 inHg , 1014.2 hPa
Clouds: Clear
Visibility: 10 miles , 16 km
2017/03/23 11:56 KNJK 231156Z AUTO 28019KT 10SM CLR 15/02 A2995 RMK AO2 PK WND 27026/1140 SLP156 70003 T01500022 10167 20144 53009
 
KSEE - San Diego/Santee, California, USA
Distance from station: SSW 74mi, 120km
Updated: Thu, 23-Mar-2017 4:55am PDT
Overcast
Overcast
 Wind from SSW
Wind: SSW 3 mph , 6 km/h
Temperature: 55°F , 13°C
Dew Point: 48°F , 9°C
Humidity: 77%
Barometer: 30.05 inHg , 1017.6 hPa
Clouds: Overcast
Visibility: 10 miles , 16 km
Cloud details: Few Clouds 2400 ft
Partly Cloudy 2900 ft
Overcast 3900 ft
2017/03/23 11:55 KSEE 231155Z AUTO 20003KT 10SM FEW024 SCT029 OVC039 13/09 A3005 RMK AO2
KCNO - Chino, California, USA
Distance from station: W 72mi, 116km
Updated: Thu, 23-Mar-2017 4:53am PDT
Clear
Clear
 Wind from NNE
Wind: NNE 8 mph , 13 km/h
Temperature: 50°F , 10°C
Wind Chill: 47°F , 8°C
Dew Point: 46°F , 8°C
Humidity: 88%
Barometer: 30.02 inHg , 1016.6 hPa
Clouds: Clear
Visibility: 7 miles , 11 km
2017/03/23 11:53 KCNO 231153Z AUTO 02007KT 7SM CLR 10/08 A3002 RMK AO2 SLP162 70003 T01000083 10133 20089 53004